Time;durP1;ratioP1;P1;durP2;ratioP2;P2;SDS_P1;SDS_P2;PMS_P1;PMS_P2;Temp;Humidity;BMP_temperature;BMP_pressure;BME280_temperature;BME280_humidity;BME280_pressure;Samples;Min_cycle;Max_cycle;Signal;HPM_P1;HPM_P2
2023/05/07 00:00:24;;;;;;;18.10;14.48;;;13.00;99.90;;;;;;5050393;28;20040;-70
2023/05/07 00:02:49;;;;;;;20.23;15.80;;;13.10;99.90;;;;;;5051160;28;20044;-69
2023/05/07 00:05:15;;;;;;;19.83;16.00;;;13.00;99.90;;;;;;5043317;28;20091;-69
2023/05/07 00:07:41;;;;;;;19.05;15.05;;;13.00;99.90;;;;;;5039221;28;20404;-69
2023/05/07 00:10:07;;;;;;;21.23;16.02;;;12.90;99.90;;;;;;5053599;28;20497;-69
2023/05/07 00:12:35;;;;;;;20.80;16.27;;;12.90;99.90;;;;;;5054979;28;20098;-69
2023/05/07 00:15:05;;;;;;;19.98;14.75;;;12.90;99.90;;;;;;5037327;28;20485;-68
2023/05/07 00:17:32;;;;;;;20.13;16.52;;;12.90;99.90;;;;;;5054807;28;20137;-69
2023/05/07 00:19:58;;;;;;;19.27;15.50;;;12.90;99.90;;;;;;5053051;28;20497;-70
2023/05/07 00:22:23;;;;;;;21.25;16.77;;;12.90;99.90;;;;;;5055101;28;20033;-69
2023/05/07 00:24:49;;;;;;;22.45;16.55;;;12.90;99.90;;;;;;5049697;28;20548;-70
2023/05/07 00:27:14;;;;;;;19.75;16.27;;;12.80;99.90;;;;;;5054727;28;20041;-70
2023/05/07 00:29:40;;;;;;;22.80;16.75;;;12.80;99.90;;;;;;5053926;28;20468;-69
2023/05/07 00:32:05;;;;;;;21.23;16.13;;;12.80;99.90;;;;;;5054659;28;20045;-70
2023/05/07 00:34:31;;;;;;;19.95;15.90;;;12.80;99.90;;;;;;5053551;28;20033;-69
2023/05/07 00:36:57;;;;;;;22.17;16.42;;;12.80;99.90;;;;;;5054567;28;20508;-69
2023/05/07 00:39:22;;;;;;;22.58;16.95;;;12.70;99.90;;;;;;5044552;28;20413;-69
2023/05/07 00:41:48;;;;;;;23.70;17.00;;;12.70;99.90;;;;;;5017956;28;20409;-70
2023/05/07 00:44:14;;;;;;;21.25;16.52;;;12.70;99.90;;;;;;5034045;28;20045;-69
2023/05/07 00:46:40;;;;;;;21.00;16.00;;;12.70;99.90;;;;;;5049621;28;20041;-69
2023/05/07 00:49:06;;;;;;;21.88;17.00;;;12.70;99.90;;;;;;5044529;28;20047;-69
2023/05/07 00:51:32;;;;;;;22.00;16.23;;;12.70;99.90;;;;;;5040333;28;20175;-69
2023/05/07 00:53:59;;;;;;;23.23;17.42;;;12.70;99.90;;;;;;5055085;28;20528;-69
2023/05/07 00:56:25;;;;;;;22.77;16.40;;;12.60;99.90;;;;;;5035397;28;20119;-69
2023/05/07 00:58:51;;;;;;;21.65;17.02;;;12.50;99.90;;;;;;5037723;28;20117;-69
2023/05/07 01:01:16;;;;;;;23.15;18.25;;;12.50;99.90;;;;;;5039779;28;20065;-69
2023/05/07 01:03:43;;;;;;;22.73;17.88;;;12.50;99.90;;;;;;5037506;28;20531;-69
2023/05/07 01:06:12;;;;;;;24.85;17.73;;;12.50;99.90;;;;;;5053297;28;20045;-69
2023/05/07 01:08:39;;;;;;;24.55;17.00;;;12.50;99.90;;;;;;5051237;28;20129;-70
2023/05/07 01:11:06;;;;;;;19.80;15.85;;;12.40;99.90;;;;;;5034885;28;20048;-70
2023/05/07 01:13:33;;;;;;;22.05;16.73;;;12.50;99.90;;;;;;5050106;28;20045;-70
2023/05/07 01:15:58;;;;;;;24.35;18.75;;;12.50;99.90;;;;;;5033911;28;20502;-69
2023/05/07 01:18:25;;;;;;;24.00;16.55;;;12.40;99.90;;;;;;5037672;28;20029;-69
2023/05/07 01:20:51;;;;;;;21.42;17.60;;;12.50;99.90;;;;;;5053604;28;20374;-70
2023/05/07 01:23:18;;;;;;;24.30;18.08;;;12.40;99.90;;;;;;5053656;28;20087;-69
2023/05/07 01:25:51;;;;;;;24.65;18.77;;;12.40;99.90;;;;;;5050243;28;20029;-69
2023/05/07 01:28:17;;;;;;;24.38;18.85;;;12.30;99.90;;;;;;5033968;28;20037;-70
2023/05/07 01:30:46;;;;;;;26.08;18.48;;;12.30;99.90;;;;;;5052279;28;20116;-70
2023/05/07 01:33:15;;;;;;;21.42;17.40;;;12.20;99.90;;;;;;5053685;28;20374;-70
2023/05/07 01:35:47;;;;;;;26.27;19.30;;;12.30;99.90;;;;;;5052931;28;20037;-69
2023/05/07 01:38:13;;;;;;;23.90;18.67;;;12.20;99.90;;;;;;5053501;28;20062;-69
2023/05/07 01:40:38;;;;;;;24.50;19.85;;;12.10;99.90;;;;;;5033847;28;20079;-69
2023/05/07 01:43:05;;;;;;;24.65;18.83;;;12.00;99.90;;;;;;5033681;28;20396;-70
2023/05/07 01:45:32;;;;;;;26.10;20.00;;;12.00;99.90;;;;;;5049071;28;20529;-70
2023/05/07 01:47:58;;;;;;;22.98;19.27;;;12.10;99.90;;;;;;5051945;28;20068;-70
2023/05/07 01:50:25;;;;;;;25.05;19.10;;;12.00;99.90;;;;;;5035105;28;20033;-69
2023/05/07 01:52:51;;;;;;;27.55;21.80;;;12.00;99.90;;;;;;5034971;28;20497;-70
2023/05/07 01:55:18;;;;;;;23.13;19.20;;;11.80;99.90;;;;;;5032989;28;20052;-70
2023/05/07 01:57:43;;;;;;;24.13;19.48;;;11.80;99.90;;;;;;5033028;28;20069;-69
2023/05/07 02:00:09;;;;;;;26.02;19.70;;;11.90;99.90;;;;;;5032810;28;20116;-70
2023/05/07 02:02:35;;;;;;;27.33;22.00;;;11.90;99.90;;;;;;5033017;28;20064;-70
2023/05/07 02:05:01;;;;;;;26.50;21.25;;;11.80;99.90;;;;;;5032789;28;20069;-69
2023/05/07 02:07:27;;;;;;;26.13;20.27;;;11.70;99.90;;;;;;5033236;28;20038;-69
2023/05/07 02:09:55;;;;;;;27.73;21.15;;;11.80;99.90;;;;;;5046542;28;20051;-69
2023/05/07 02:12:21;;;;;;;25.85;19.73;;;11.80;99.90;;;;;;5052224;28;20420;-70
2023/05/07 02:14:46;;;;;;;28.15;21.13;;;11.90;99.90;;;;;;5052441;28;20045;-70
2023/05/07 02:17:12;;;;;;;26.27;18.70;;;11.90;99.90;;;;;;5052653;28;20033;-70
2023/05/07 02:19:37;;;;;;;28.50;21.60;;;11.90;99.90;;;;;;5050587;28;20091;-69
2023/05/07 02:22:03;;;;;;;26.95;20.92;;;11.90;99.90;;;;;;5052555;28;20530;-69
2023/05/07 02:24:29;;;;;;;28.10;20.98;;;11.90;99.90;;;;;;5045007;28;20037;-70
2023/05/07 02:26:55;;;;;;;28.58;22.42;;;11.80;99.90;;;;;;5032537;28;20041;-69
2023/05/07 02:29:21;;;;;;;28.08;21.50;;;11.80;99.90;;;;;;5025312;28;20465;-70
2023/05/07 02:31:50;;;;;;;30.30;22.38;;;11.80;99.90;;;;;;5051814;28;20040;-69
2023/05/07 02:34:16;;;;;;;27.88;21.25;;;11.90;99.90;;;;;;5034885;28;20041;-70
2023/05/07 02:36:42;;;;;;;32.58;23.63;;;11.90;99.90;;;;;;5052221;28;20044;-69
2023/05/07 02:39:07;;;;;;;34.30;22.67;;;11.80;99.90;;;;;;5039787;28;20405;-70
2023/05/07 02:41:33;;;;;;;33.25;23.83;;;11.80;99.90;;;;;;5044555;28;20041;-71
2023/05/07 02:43:58;;;;;;;31.00;23.48;;;11.80;99.90;;;;;;5052146;28;20091;-70
2023/05/07 02:46:24;;;;;;;33.85;23.48;;;11.80;99.90;;;;;;5052116;28;20044;-69
2023/05/07 02:48:49;;;;;;;33.05;23.45;;;11.70;99.90;;;;;;5050328;28;20064;-70
2023/05/07 02:51:22;;;;;;;31.17;22.77;;;11.80;99.90;;;;;;5051175;28;20381;-70
2023/05/07 02:53:47;;;;;;;;;;;11.70;99.90;;;;;;5051783;28;20049;-69
2023/05/07 02:56:13;;;;;;;33.70;23.75;;;11.80;99.90;;;;;;5052182;28;19986;-70
2023/05/07 02:58:44;;;;;;;32.25;23.58;;;11.80;99.90;;;;;;5037200;28;20037;-70
2023/05/07 03:01:10;;;;;;;33.35;23.83;;;11.80;99.90;;;;;;5015618;28;20041;-69
2023/05/07 03:03:35;;;;;;;28.55;22.33;;;11.80;99.90;;;;;;5031528;28;20040;-70
2023/05/07 03:06:01;;;;;;;35.03;24.52;;;11.80;99.90;;;;;;5048762;28;20033;-70
2023/05/07 03:08:27;;;;;;;35.92;26.77;;;11.80;99.90;;;;;;5062652;28;20037;-70
2023/05/07 03:10:52;;;;;;;33.58;25.02;;;11.60;99.90;;;;;;5059582;28;20041;-70
2023/05/07 03:13:18;;;;;;;35.53;24.95;;;11.60;99.90;;;;;;5043435;28;20094;-70
2023/05/07 03:15:44;;;;;;;37.08;26.15;;;11.70;99.90;;;;;;5051975;28;20049;-70
2023/05/07 03:18:10;;;;;;;35.63;25.73;;;11.60;99.90;;;;;;5040508;28;20117;-69
2023/05/07 03:20:36;;;;;;;32.90;23.42;;;11.60;99.90;;;;;;5048396;28;20099;-70
2023/05/07 03:23:02;;;;;;;36.40;25.88;;;11.60;99.90;;;;;;5015414;28;20041;-70
2023/05/07 03:25:28;;;;;;;36.63;26.38;;;11.50;99.90;;;;;;5049043;28;20067;-70
2023/05/07 03:27:53;;;;;;;37.15;27.13;;;11.50;99.90;;;;;;5040914;28;20037;-70
2023/05/07 03:30:19;;;;;;;37.65;26.02;;;11.50;99.90;;;;;;5051679;28;20053;-69
2023/05/07 03:32:45;;;;;;;34.42;26.00;;;11.50;99.90;;;;;;5051910;28;20045;-70
2023/05/07 03:35:11;;;;;;;36.00;25.10;;;11.50;99.90;;;;;;5050584;28;20493;-69
2023/05/07 03:37:38;;;;;;;35.38;25.15;;;11.50;99.90;;;;;;5049916;28;20037;-70
2023/05/07 03:40:04;;;;;;;35.90;25.05;;;11.50;99.90;;;;;;5051726;28;20049;-71
2023/05/07 03:42:30;;;;;;;36.88;26.58;;;11.60;99.90;;;;;;5052822;28;20481;-70
2023/05/07 03:44:55;;;;;;;33.10;25.02;;;11.60;99.90;;;;;;5054775;28;20041;-70
2023/05/07 03:47:21;;;;;;;35.15;24.73;;;11.50;99.90;;;;;;5037035;28;20052;-69
2023/05/07 03:49:47;;;;;;;36.08;26.10;;;11.60;99.90;;;;;;5055716;28;20396;-69
2023/05/07 03:52:13;;;;;;;34.28;24.77;;;11.60;99.90;;;;;;5054116;28;20132;-69
2023/05/07 03:54:39;;;;;;;37.28;25.77;;;11.60;99.90;;;;;;5035325;28;20120;-70
2023/05/07 03:57:04;;;;;;;32.85;23.70;;;11.50;99.90;;;;;;5051663;28;20050;-69
2023/05/07 03:59:30;;;;;;;32.08;24.52;;;11.60;99.90;;;;;;5054737;28;20044;-70
2023/05/07 04:01:55;;;;;;;34.22;24.35;;;11.50;99.90;;;;;;5055135;28;20067;-70
2023/05/07 04:04:21;;;;;;;33.03;24.38;;;11.60;99.90;;;;;;5053912;28;20409;-69
2023/05/07 04:06:46;;;;;;;33.25;24.05;;;11.60;99.90;;;;;;5038464;28;20123;-70
2023/05/07 04:09:12;;;;;;;32.58;23.70;;;11.60;99.90;;;;;;5037648;28;20036;-69
2023/05/07 04:11:39;;;;;;;33.25;22.35;;;11.60;99.90;;;;;;5055051;28;20044;-69
2023/05/07 04:14:05;;;;;;;30.35;22.98;;;11.70;99.90;;;;;;5054290;28;20500;-69
2023/05/07 04:16:31;;;;;;;32.10;24.00;;;11.70;99.90;;;;;;5054788;28;20037;-70
2023/05/07 04:18:56;;;;;;;33.42;24.70;;;11.60;99.90;;;;;;5053038;28;20405;-69
2023/05/07 04:21:22;;;;;;;31.50;22.98;;;11.40;99.90;;;;;;5054862;28;20048;-69
2023/05/07 04:23:48;;;;;;;31.83;24.90;;;11.50;99.90;;;;;;5053159;28;20048;-70
2023/05/07 04:26:15;;;;;;;42.85;38.50;;;11.40;99.90;;;;;;5034720;28;20098;-70
2023/05/07 04:28:40;;;;;;;32.22;24.60;;;11.40;99.90;;;;;;5046313;28;20083;-70
2023/05/07 04:31:06;;;;;;;30.42;23.98;;;11.50;99.90;;;;;;5053809;28;20088;-69
2023/05/07 04:33:32;;;;;;;33.05;24.15;;;11.50;99.90;;;;;;5054529;28;20041;-70
2023/05/07 04:36:02;;;;;;;29.80;20.77;;;11.40;99.90;;;;;;5054713;28;20406;-70
2023/05/07 04:38:29;;;;;;;32.42;24.15;;;11.60;99.90;;;;;;5036976;28;20524;-70
2023/05/07 04:40:55;;;;;;;29.50;22.17;;;11.50;99.90;;;;;;5054763;28;20442;-69
2023/05/07 04:43:21;;;;;;;30.52;23.15;;;11.50;99.90;;;;;;5054660;28;20033;-70
2023/05/07 04:45:47;;;;;;;30.48;23.17;;;11.40;99.90;;;;;;5053643;28;20167;-70
2023/05/07 04:48:14;;;;;;;31.02;22.52;;;11.30;99.90;;;;;;5035813;28;20044;-70
2023/05/07 04:50:40;;;;;;;30.88;21.33;;;11.40;99.90;;;;;;5036828;28;20043;-70
2023/05/07 04:53:06;;;;;;;32.10;23.15;;;11.40;99.90;;;;;;5054048;28;20110;-69
2023/05/07 04:55:31;;;;;;;26.95;21.30;;;11.40;99.90;;;;;;5043376;28;20045;-70
2023/05/07 04:57:57;;;;;;;29.55;23.08;;;11.40;99.90;;;;;;5053046;28;20037;-69
2023/05/07 05:00:22;;;;;;;28.92;23.13;;;11.30;99.90;;;;;;5054084;28;20037;-69
2023/05/07 05:02:48;;;;;;;29.50;21.63;;;11.30;99.90;;;;;;5053980;28;20041;-69
2023/05/07 05:05:14;;;;;;;29.33;22.40;;;11.30;99.90;;;;;;5053309;28;20455;-69
2023/05/07 05:07:39;;;;;;;28.90;21.67;;;11.30;99.90;;;;;;5036510;28;20056;-69
2023/05/07 05:10:05;;;;;;;28.63;22.23;;;11.30;99.90;;;;;;5070661;28;20048;-69
2023/05/07 05:12:31;;;;;;;29.73;22.77;;;11.30;99.90;;;;;;5037324;28;20045;-69
2023/05/07 05:14:57;;;;;;;27.35;21.48;;;11.40;99.90;;;;;;5041707;28;20497;-70
2023/05/07 05:17:23;;;;;;;31.42;22.27;;;11.40;99.90;;;;;;5035602;28;20093;-69
2023/05/07 05:19:48;;;;;;;29.17;21.15;;;11.40;99.90;;;;;;5053780;28;20509;-69
2023/05/07 05:22:14;;;;;;;27.65;19.75;;;11.50;99.90;;;;;;5037144;28;20079;-69
2023/05/07 05:24:39;;;;;;;27.90;20.67;;;11.50;99.90;;;;;;5027592;28;20044;-69
2023/05/07 05:27:05;;;;;;;28.90;20.52;;;11.50;99.90;;;;;;5045281;28;20079;-69
2023/05/07 05:29:31;;;;;;;27.30;20.45;;;11.40;99.90;;;;;;5049337;28;20048;-69
2023/05/07 05:31:57;;;;;;;25.75;19.88;;;11.40;99.90;;;;;;5017192;28;20045;-69
2023/05/07 05:34:22;;;;;;;27.25;20.95;;;11.40;99.90;;;;;;5033520;28;20128;-69
2023/05/07 05:36:48;;;;;;;25.50;20.35;;;11.40;99.90;;;;;;5018010;28;20033;-70
2023/05/07 05:39:14;;;;;;;28.35;21.92;;;11.40;99.90;;;;;;5053426;28;20036;-70
2023/05/07 05:41:40;;;;;;;25.70;19.85;;;11.30;99.90;;;;;;5053381;28;20461;-70
2023/05/07 05:44:05;;;;;;;26.75;20.42;;;11.30;99.90;;;;;;5027276;28;20043;-69
2023/05/07 05:46:31;;;;;;;27.35;20.13;;;11.30;99.90;;;;;;5049590;28;20633;-70
2023/05/07 05:48:57;;;;;;;27.30;20.40;;;11.30;99.90;;;;;;5022095;28;20128;-69
2023/05/07 05:51:23;;;;;;;26.52;19.95;;;11.40;99.90;;;;;;5047966;28;20049;-69
2023/05/07 05:53:48;;;;;;;25.67;20.05;;;11.30;99.90;;;;;;5041640;28;20053;-69
2023/05/07 05:56:15;;;;;;;26.65;20.45;;;11.40;99.90;;;;;;5039221;28;20039;-69
2023/05/07 05:58:41;;;;;;;27.85;20.90;;;11.30;99.90;;;;;;5055697;28;20037;-69
2023/05/07 06:01:06;;;;;;;27.65;21.75;;;11.30;99.90;;;;;;5034269;28;20039;-72
2023/05/07 06:03:32;;;;;;;26.42;21.00;;;11.30;99.90;;;;;;5040497;28;20124;-73
2023/05/07 06:05:58;;;;;;;25.52;19.35;;;11.30;99.90;;;;;;5048769;28;20051;-71
2023/05/07 06:08:23;;;;;;;23.83;19.25;;;11.30;99.90;;;;;;5046935;28;20098;-70
2023/05/07 06:10:49;;;;;;;28.35;20.50;;;11.40;99.90;;;;;;5047141;28;20099;-69
2023/05/07 06:13:15;;;;;;;24.10;17.48;;;11.50;99.90;;;;;;5034629;28;20060;-69
2023/05/07 06:15:40;;;;;;;23.38;18.70;;;11.60;99.90;;;;;;5049938;28;20025;-69
2023/05/07 06:18:06;;;;;;;25.58;20.05;;;11.60;99.90;;;;;;5049972;28;20097;-70
2023/05/07 06:20:32;;;;;;;24.60;18.08;;;11.70;99.90;;;;;;5037105;28;20029;-69
2023/05/07 06:22:57;;;;;;;27.65;19.02;;;11.70;99.90;;;;;;5030457;28;20059;-69
2023/05/07 06:25:23;;;;;;;25.88;19.23;;;11.60;99.90;;;;;;5046770;28;20037;-69
2023/05/07 06:27:48;;;;;;;25.92;20.08;;;11.70;99.90;;;;;;5051437;28;20087;-69
2023/05/07 06:30:14;;;;;;;24.13;19.00;;;11.70;99.90;;;;;;5026103;28;20120;-70
2023/05/07 06:32:40;;;;;;;27.38;18.83;;;11.70;99.90;;;;;;5031566;28;20068;-69
2023/05/07 06:35:06;;;;;;;26.80;19.17;;;11.70;99.90;;;;;;5033481;28;20076;-70
2023/05/07 06:37:32;;;;;;;24.63;17.95;;;11.70;99.90;;;;;;5059154;28;20450;-69
2023/05/07 06:39:57;;;;;;;24.90;18.83;;;11.70;99.90;;;;;;5045779;28;20041;-69
2023/05/07 06:42:23;;;;;;;25.48;20.63;;;11.70;99.90;;;;;;5038991;28;20047;-69
2023/05/07 06:44:48;;;;;;;28.02;21.27;;;11.70;99.90;;;;;;5051774;28;20409;-70
2023/05/07 06:47:14;;;;;;;22.73;17.52;;;11.70;99.90;;;;;;5023001;28;20516;-69
2023/05/07 06:49:40;;;;;;;28.80;21.75;;;11.80;99.90;;;;;;5046617;28;20037;-70
2023/05/07 06:52:05;;;;;;;25.67;20.73;;;11.80;99.90;;;;;;5032201;28;20057;-70
2023/05/07 06:54:31;;;;;;;24.40;19.98;;;11.70;99.90;;;;;;5044375;28;20081;-70
2023/05/07 06:56:56;;;;;;;23.95;18.23;;;11.70;99.90;;;;;;5039466;28;20041;-70
2023/05/07 06:59:23;;;;;;;25.02;19.52;;;11.80;99.90;;;;;;5050050;28;20148;-69
2023/05/07 07:01:48;;;;;;;25.98;17.80;;;11.90;99.90;;;;;;5042013;28;20037;-69
2023/05/07 07:04:14;;;;;;;25.40;20.05;;;11.80;99.90;;;;;;5034638;28;20036;-69
2023/05/07 07:06:40;;;;;;;26.52;20.42;;;11.90;99.90;;;;;;5028721;28;20033;-70
2023/05/07 07:09:05;;;;;;;26.33;19.13;;;11.90;99.90;;;;;;5036810;28;20516;-70
2023/05/07 07:11:31;;;;;;;24.42;19.58;;;11.90;99.90;;;;;;5034563;28;20048;-70
2023/05/07 07:13:56;;;;;;;25.55;19.75;;;12.10;99.90;;;;;;5045663;28;20303;-71
2023/05/07 07:16:22;;;;;;;29.88;20.60;;;12.10;99.90;;;;;;5033810;28;20073;-70
2023/05/07 07:18:48;;;;;;;28.17;21.13;;;12.00;99.90;;;;;;5031784;28;20575;-86
2023/05/07 07:21:13;;;;;;;26.92;19.77;;;12.00;99.90;;;;;;5048777;28;20033;-71
2023/05/07 07:23:39;;;;;;;26.88;20.42;;;12.10;99.90;;;;;;5042520;28;20044;-71
2023/05/07 07:26:05;;;;;;;28.15;20.17;;;12.10;99.90;;;;;;5047586;28;20052;-70
2023/05/07 07:28:31;;;;;;;26.55;18.33;;;12.10;99.90;;;;;;5048553;28;20045;-71
2023/05/07 07:30:57;;;;;;;27.90;21.50;;;12.20;99.90;;;;;;5038748;28;20037;-70
2023/05/07 07:33:22;;;;;;;26.73;20.23;;;12.20;99.90;;;;;;5044592;28;20040;-71
2023/05/07 07:35:48;;;;;;;29.42;22.02;;;12.20;99.90;;;;;;5037000;28;20036;-70
2023/05/07 07:38:13;;;;;;;28.13;21.55;;;12.20;99.90;;;;;;5049520;28;20037;-71
2023/05/07 07:40:39;;;;;;;29.38;20.70;;;12.20;99.90;;;;;;5034346;28;20118;-71
2023/05/07 07:43:05;;;;;;;29.73;21.65;;;12.20;99.90;;;;;;5045070;28;20044;-71
2023/05/07 07:45:31;;;;;;;28.40;21.33;;;12.20;99.90;;;;;;5032015;28;20048;-71
2023/05/07 07:47:57;;;;;;;29.13;22.85;;;12.20;99.90;;;;;;5047101;28;20042;-70
2023/05/07 07:50:22;;;;;;;29.65;22.25;;;12.30;99.90;;;;;;5027501;28;20481;-71
2023/05/07 07:52:48;;;;;;;28.67;22.40;;;12.30;99.90;;;;;;5021894;28;20107;-71
2023/05/07 07:55:17;;;;;;;30.20;22.20;;;12.20;99.90;;;;;;5051104;28;20152;-71
2023/05/07 07:57:43;;;;;;;30.15;22.85;;;12.20;99.90;;;;;;5030960;28;20037;-71
2023/05/07 08:00:09;;;;;;;27.52;22.02;;;12.30;99.90;;;;;;5032162;28;20084;-71
2023/05/07 08:02:35;;;;;;;31.05;22.65;;;12.30;99.90;;;;;;5031386;28;20116;-71
2023/05/07 08:05:00;;;;;;;29.15;21.48;;;12.30;99.90;;;;;;5035555;28;20072;-71
2023/05/07 08:07:26;;;;;;;28.05;21.67;;;12.50;99.90;;;;;;5039265;28;20037;-71
2023/05/07 08:09:51;;;;;;;27.33;20.83;;;12.50;99.90;;;;;;5034177;28;20047;-71
2023/05/07 08:12:18;;;;;;;30.38;21.85;;;12.40;99.90;;;;;;5050898;28;20051;-70
2023/05/07 08:14:43;;;;;;;30.98;23.13;;;12.50;99.90;;;;;;5029940;28;20033;-71
2023/05/07 08:17:10;;;;;;;30.52;21.77;;;12.50;99.90;;;;;;5022373;28;20413;-71
2023/05/07 08:19:36;;;;;;;27.13;21.08;;;12.50;99.90;;;;;;5055559;28;20041;-71
2023/05/07 08:22:03;;;;;;;28.98;22.45;;;12.50;99.90;;;;;;5035840;28;20493;-71
2023/05/07 08:24:28;;;;;;;29.50;22.58;;;12.70;99.90;;;;;;5051002;28;20080;-70
2023/05/07 08:26:54;;;;;;;29.23;23.30;;;12.70;99.90;;;;;;5025594;28;20493;-71
2023/05/07 08:29:19;;;;;;;29.45;22.83;;;12.70;99.90;;;;;;5034335;28;20032;-71
2023/05/07 08:31:45;;;;;;;30.90;23.85;;;12.80;99.90;;;;;;5054000;28;20036;-71
2023/05/07 08:34:11;;;;;;;31.35;23.50;;;13.00;99.90;;;;;;5053952;28;20087;-71
2023/05/07 08:36:36;;;;;;;31.13;23.05;;;13.00;99.90;;;;;;5054453;28;20029;-71
2023/05/07 08:39:02;;;;;;;27.77;22.45;;;13.10;99.90;;;;;;5053619;28;20036;-71
2023/05/07 08:41:28;;;;;;;28.88;23.48;;;13.20;99.90;;;;;;5047830;28;20068;-71
2023/05/07 08:43:59;;;;;;;31.10;23.30;;;13.20;99.90;;;;;;5053949;28;20123;-71
2023/05/07 08:46:29;;;;;;;28.05;21.75;;;13.30;99.90;;;;;;5053832;28;20047;-71
2023/05/07 08:48:55;;;;;;;21.95;14.18;;;13.40;99.90;;;;;;5053639;28;20143;-72
2023/05/07 08:51:21;;;;;;;24.08;17.60;;;13.40;99.90;;;;;;5054223;28;20132;-71
2023/05/07 08:53:49;;;;;;;27.13;20.65;;;13.50;99.90;;;;;;5053900;28;20497;-71
2023/05/07 08:56:15;;;;;;;27.60;21.50;;;13.60;99.90;;;;;;5047588;28;20045;-71
2023/05/07 08:58:44;;;;;;;27.58;20.77;;;13.50;99.90;;;;;;5038368;28;20079;-71
2023/05/07 09:01:13;;;;;;;28.67;20.92;;;13.60;99.90;;;;;;5053522;28;20041;-71
2023/05/07 09:03:40;;;;;;;26.75;20.90;;;13.70;99.90;;;;;;5054144;28;20037;-71
2023/05/07 09:06:06;;;;;;;26.30;19.10;;;13.70;99.90;;;;;;5037111;28;20551;-71
2023/05/07 09:08:33;;;;;;;27.42;21.17;;;13.60;99.90;;;;;;5036990;28;20025;-71
2023/05/07 09:10:59;;;;;;;26.85;21.38;;;13.50;99.90;;;;;;5044072;28;20035;-71
2023/05/07 09:13:26;;;;;;;27.85;22.58;;;13.40;99.90;;;;;;5033525;28;20037;-71
2023/05/07 09:15:52;;;;;;;26.17;21.30;;;13.40;99.90;;;;;;5033439;28;20049;-71
2023/05/07 09:18:18;;;;;;;28.13;19.95;;;13.50;99.90;;;;;;5033379;28;20391;-71
2023/05/07 09:20:43;;;;;;;24.95;18.35;;;13.50;99.90;;;;;;5069418;28;20043;-72
2023/05/07 09:23:09;;;;;;;24.92;20.65;;;13.60;99.90;;;;;;5052632;28;20071;-71
2023/05/07 09:25:36;;;;;;;25.88;20.10;;;13.70;99.90;;;;;;5053260;28;20037;-71
2023/05/07 09:28:03;;;;;;;26.02;21.15;;;13.70;99.90;;;;;;5036918;28;20087;-71
2023/05/07 09:30:30;;;;;;;25.70;20.00;;;13.70;99.90;;;;;;5069243;28;20048;-71
2023/05/07 09:32:57;;;;;;;26.65;20.80;;;13.90;99.90;;;;;;5052773;28;20047;-71
2023/05/07 09:35:27;;;;;;;24.38;18.92;;;13.90;99.90;;;;;;5052804;28;20041;-71
2023/05/07 09:37:53;;;;;;;24.50;20.40;;;14.00;99.90;;;;;;5053552;28;20033;-71
2023/05/07 09:40:30;;;;;;;25.20;20.38;;;14.10;99.90;;;;;;5051283;28;20052;-71
2023/05/07 09:42:55;;;;;;;25.25;19.50;;;14.00;99.90;;;;;;5034814;28;20109;-71
2023/05/07 09:45:32;;;;;;;25.05;19.25;;;14.10;99.90;;;;;;5039711;28;20124;-71
2023/05/07 09:47:58;;;;;;;23.95;19.83;;;14.30;99.90;;;;;;5040161;28;20576;-72
2023/05/07 09:50:30;;;;;;;25.25;20.88;;;14.40;99.90;;;;;;5033325;28;20120;-71
2023/05/07 09:52:56;;;;;;;26.52;20.25;;;14.60;99.90;;;;;;5032772;28;20053;-71
2023/05/07 09:55:23;;;;;;;24.98;21.50;;;14.70;99.90;;;;;;5016155;28;20125;-71
2023/05/07 09:57:53;;;;;;;24.52;19.83;;;14.70;99.90;;;;;;5032903;28;20481;-71
2023/05/07 10:00:21;;;;;;;22.48;18.73;;;14.80;99.90;;;;;;5016145;28;20099;-71
2023/05/07 10:02:52;;;;;;;25.67;19.95;;;14.60;99.90;;;;;;5049299;28;20040;-71
2023/05/07 10:05:20;;;;;;;24.13;19.23;;;14.70;99.90;;;;;;5048889;28;20045;-71
2023/05/07 10:07:46;;;;;;;23.52;19.80;;;14.80;99.90;;;;;;5016924;28;20037;-71
2023/05/07 10:10:12;;;;;;;23.60;19.55;;;14.80;99.90;;;;;;5032663;28;20041;-71
2023/05/07 10:12:40;;;;;;;23.67;18.67;;;14.90;99.90;;;;;;5015701;28;20521;-71
2023/05/07 10:15:07;;;;;;;23.05;18.80;;;14.90;99.90;;;;;;5025803;28;20068;-71
2023/05/07 10:17:38;;;;;;;24.45;20.60;;;14.90;99.90;;;;;;5032844;28;20508;-71
2023/05/07 10:20:05;;;;;;;24.15;19.55;;;14.90;99.90;;;;;;5032201;28;20037;-71
2023/05/07 10:22:45;;;;;;;22.65;17.60;;;14.90;99.90;;;;;;5049131;28;20143;-71
2023/05/07 10:25:25;;;;;;;26.33;20.45;;;15.00;99.90;;;;;;5052351;28;20072;-71
2023/05/07 10:27:53;;;;;;;23.17;17.95;;;15.10;99.90;;;;;;5036119;28;20393;-71
2023/05/07 10:30:48;;;;;;;24.27;18.77;;;15.00;99.90;;;;;;5035475;28;20059;-71
2023/05/07 10:33:19;;;;;;;23.42;20.13;;;15.10;99.90;;;;;;5051985;28;20055;-71
2023/05/07 10:35:47;;;;;;;22.30;19.63;;;15.00;99.90;;;;;;5035558;28;20125;-71
2023/05/07 10:38:13;;;;;;;22.63;19.05;;;15.20;99.90;;;;;;5068265;28;20077;-71
2023/05/07 10:40:39;;;;;;;24.75;18.75;;;15.30;99.90;;;;;;5050368;28;20114;-71
2023/05/07 10:43:06;;;;;;;23.00;19.05;;;15.50;99.90;;;;;;5050458;28;20041;-71
2023/05/07 10:45:32;;;;;;;23.67;19.77;;;15.50;99.90;;;;;;5031926;28;20524;-72
2023/05/07 10:48:15;;;;;;;20.67;17.42;;;15.50;99.90;;;;;;5031672;28;20528;-71
2023/05/07 10:50:42;;;;;;;25.83;18.08;;;15.60;99.90;;;;;;5031722;28;20041;-72
2023/05/07 10:53:17;;;;;;;23.10;17.85;;;15.70;99.90;;;;;;5031054;28;20525;-72
2023/05/07 10:55:43;;;;;;;23.30;17.60;;;15.80;99.90;;;;;;5041907;28;20104;-72
2023/05/07 10:58:21;;;;;;;22.10;19.50;;;15.90;99.90;;;;;;5051523;28;20049;-72
2023/05/07 11:00:48;;;;;;;21.40;17.67;;;15.90;99.90;;;;;;5051437;28;20052;-72
2023/05/07 11:03:14;;;;;;;21.27;17.38;;;16.00;99.90;;;;;;5051946;28;20374;-72
2023/05/07 11:05:41;;;;;;;23.05;17.90;;;16.20;99.90;;;;;;5051353;28;20505;-72
2023/05/07 11:08:07;;;;;;;22.08;17.75;;;16.20;99.90;;;;;;5051777;28;20044;-72
2023/05/07 11:10:53;;;;;;;21.13;18.05;;;16.30;99.90;;;;;;5047632;28;20098;-72
2023/05/07 11:13:42;;;;;;;21.67;16.85;;;16.30;99.90;;;;;;5045951;28;20041;-72
2023/05/07 11:16:24;;;;;;;20.63;17.95;;;16.30;99.90;;;;;;5051383;28;20059;-72
2023/05/07 11:18:56;;;;;;;21.65;16.50;;;16.50;99.90;;;;;;5051569;28;20504;-72
2023/05/07 11:21:39;;;;;;;19.35;16.38;;;16.70;99.90;;;;;;5034453;28;20505;-72
2023/05/07 11:24:07;;;;;;;21.65;17.13;;;16.70;99.90;;;;;;5051208;28;20049;-72
2023/05/07 11:26:51;;;;;;;22.55;17.83;;;16.70;99.90;;;;;;5035225;28;20055;-72
2023/05/07 11:29:21;;;;;;;18.77;15.55;;;16.70;99.90;;;;;;5044238;28;20042;-72
2023/05/07 11:31:54;;;;;;;21.13;18.42;;;16.70;99.90;;;;;;5031284;28;20052;-72
2023/05/07 11:34:25;;;;;;;22.65;18.58;;;16.60;99.90;;;;;;5031509;28;20081;-72
2023/05/07 11:36:51;;;;;;;21.95;18.95;;;16.60;99.90;;;;;;5031295;28;20042;-72
2023/05/07 11:39:28;;;;;;;21.30;19.05;;;16.70;99.90;;;;;;5047797;28;20038;-72
2023/05/07 11:41:54;;;;;;;20.60;18.13;;;16.80;99.90;;;;;;5028519;28;20387;-72
2023/05/07 11:44:19;;;;;;;22.13;18.38;;;16.80;99.90;;;;;;5051214;28;20047;-72
2023/05/07 11:46:45;;;;;;;20.25;18.08;;;16.90;99.90;;;;;;5050536;28;20508;-73
2023/05/07 11:49:11;;;;;;;20.55;18.27;;;16.90;99.90;;;;;;5051234;28;20048;-72
2023/05/07 11:51:38;;;;;;;22.25;19.25;;;16.90;99.90;;;;;;5035801;28;20062;-72
2023/05/07 11:54:08;;;;;;;19.77;17.40;;;16.90;99.90;;;;;;5030922;28;20481;-72
2023/05/07 11:56:38;;;;;;;20.25;18.02;;;17.00;99.90;;;;;;5014964;28;20489;-72
2023/05/07 11:59:04;;;;;;;20.33;18.15;;;17.10;99.90;;;;;;5014661;28;20370;-72
2023/05/07 12:01:30;;;;;;;20.25;17.17;;;17.00;99.90;;;;;;5031192;28;20045;-72
2023/05/07 12:03:55;;;;;;;21.30;18.52;;;16.90;99.90;;;;;;5023867;28;20042;-72
2023/05/07 12:06:21;;;;;;;20.70;18.50;;;16.90;99.90;;;;;;5051986;28;20448;-72
2023/05/07 12:08:47;;;;;;;19.42;16.73;;;16.80;99.90;;;;;;5034949;28;20131;-72
2023/05/07 12:11:23;;;;;;;19.65;17.55;;;16.90;99.90;;;;;;5028330;28;20048;-72
2023/05/07 12:13:49;;;;;;;19.35;17.15;;;17.00;99.90;;;;;;5038067;28;20044;-73
2023/05/07 12:16:15;;;;;;;19.73;17.33;;;17.10;99.90;;;;;;5037842;28;20068;-73
2023/05/07 12:18:41;;;;;;;19.08;16.52;;;17.10;99.90;;;;;;5054076;28;20589;-73
2023/05/07 12:21:07;;;;;;;19.60;17.45;;;17.20;99.90;;;;;;5037727;28;20041;-73
2023/05/07 12:23:35;;;;;;;17.95;13.48;;;17.30;99.90;;;;;;5046063;28;20124;-72
2023/05/07 12:26:01;;;;;;;17.70;14.77;;;17.40;99.90;;;;;;5041547;28;20045;-72